Time;durP1;ratioP1;P1;durP2;ratioP2;P2;SDS_P1;SDS_P2;PMS_P1;PMS_P2;Temp;Humidity;BMP_temperature;BMP_pressure;BME280_temperature;BME280_humidity;BME280_pressure;Samples;Min_cycle;Max_cycle;Signal;HPM_P1;HPM_P2
2023/04/25 00:01:56;;;;;;;;;;;7.40;81.20;;;;;;5012717;28;19961;-84
2023/04/25 00:04:21;;;;;;;;;;;7.40;80.40;;;;;;5009949;28;19914;-84
2023/04/25 00:06:47;;;;;;;;;;;7.30;80.50;;;;;;5016804;28;19989;-84
2023/04/25 00:09:12;;;;;;;;;;;7.20;81.00;;;;;;5009916;28;20011;-84
2023/04/25 00:11:38;;;;;;;;;;;7.30;81.00;;;;;;5010543;28;19950;-84
2023/04/25 00:14:04;;;;;;;;;;;7.30;81.00;;;;;;5011457;28;19913;-85
2023/04/25 00:16:33;;;;;;;;;;;7.40;81.00;;;;;;5009734;28;20000;-84
2023/04/25 00:18:58;;;;;;;;;;;7.50;80.90;;;;;;5012925;28;20355;-84
2023/04/25 00:21:24;;;;;;;;;;;7.50;80.70;;;;;;5013916;28;19936;-84
2023/04/25 00:23:50;;;;;;;;;;;7.50;81.20;;;;;;5022484;28;19935;-84
2023/04/25 00:26:15;;;;;;;;;;;7.60;80.80;;;;;;5010187;28;19979;-83
2023/04/25 00:28:41;;;;;;;;;;;7.60;80.40;;;;;;5004719;28;19917;-84
2023/04/25 00:31:06;;;;;;;;;;;7.60;80.00;;;;;;5008677;28;20008;-84
2023/04/25 00:33:32;;;;;;;;;;;7.60;80.10;;;;;;5009520;28;20248;-84
2023/04/25 00:35:57;;;;;;;;;;;7.70;79.70;;;;;;5009394;28;19952;-83
2023/04/25 00:38:22;;;;;;;;;;;7.60;80.00;;;;;;5010137;28;19913;-83
2023/04/25 00:40:48;;;;;;;;;;;7.70;80.10;;;;;;5011069;28;19993;-84
2023/04/25 00:43:13;;;;;;;;;;;7.70;80.20;;;;;;5013777;28;19913;-85
2023/04/25 00:45:39;;;;;;;;;;;7.60;80.40;;;;;;5021540;28;19913;-85
2023/04/25 00:48:05;;;;;;;;;;;7.60;80.70;;;;;;5021700;28;20051;-85
2023/04/25 00:50:32;;;;;;;;;;;7.70;80.80;;;;;;5016616;28;19913;-85
2023/04/25 00:52:57;;;;;;;;;;;7.60;80.80;;;;;;5018275;28;19917;-85
2023/04/25 00:55:23;;;;;;;;;;;7.60;81.50;;;;;;5012592;28;20426;-84
2023/04/25 00:57:49;;;;;;;;;;;7.60;81.50;;;;;;5024851;28;19917;-84
2023/04/25 01:00:14;;;;;;;;;;;7.70;81.40;;;;;;5014398;28;19913;-85
2023/04/25 01:02:41;;;;;;;;;;;7.70;81.30;;;;;;5011580;28;20330;-85
2023/04/25 01:05:07;;;;;;;;;;;7.80;81.00;;;;;;5013049;28;20087;-84
2023/04/25 01:07:32;;;;;;;;;;;7.70;81.30;;;;;;5035241;28;20672;-85
2023/04/25 01:09:58;;;;;;;;;;;7.70;81.40;;;;;;5013636;28;19917;-85
2023/04/25 01:12:23;;;;;;;;;;;7.70;81.50;;;;;;5020119;28;19913;-85
2023/04/25 01:14:49;;;;;;;;;;;7.60;81.30;;;;;;5016872;28;20346;-84
2023/04/25 01:17:15;;;;;;;;;;;7.60;82.10;;;;;;5022259;28;19956;-84
2023/04/25 01:19:41;;;;;;;;;;;7.60;82.60;;;;;;5017263;28;19971;-85
2023/04/25 01:22:07;;;;;;;;;;;7.60;82.40;;;;;;5011400;28;19917;-84
2023/04/25 01:24:32;;;;;;;;;;;7.60;82.90;;;;;;5019644;28;20027;-84
2023/04/25 01:26:58;;;;;;;;;;;7.60;83.60;;;;;;5015647;28;20552;-84
2023/04/25 01:29:24;;;;;;;;;;;7.60;84.30;;;;;;5012888;28;19920;-83
2023/04/25 01:31:50;;;;;;;;;;;7.60;84.80;;;;;;5008639;28;19920;-85
2023/04/25 01:34:16;;;;;;;;;;;7.60;85.10;;;;;;5010635;28;19951;-83
2023/04/25 01:36:41;;;;;;;;;;;7.50;85.70;;;;;;5011851;28;19921;-83
2023/04/25 01:39:07;;;;;;;;;;;7.60;85.80;;;;;;5010975;28;19922;-84
2023/04/25 01:41:34;;;;;;;;;;;7.60;85.40;;;;;;5012438;28;20375;-84
2023/04/25 01:44:00;;;;;;;;;;;7.60;85.40;;;;;;5011870;28;19918;-84
2023/04/25 01:46:26;;;;;;;;;;;7.60;85.70;;;;;;5011792;28;20350;-84
2023/04/25 01:48:51;;;;;;;;;;;7.60;85.70;;;;;;5019990;28;19948;-84
2023/04/25 01:51:17;;;;;;;;;;;7.60;85.60;;;;;;5005337;28;19964;-84
2023/04/25 01:53:43;;;;;;;;;;;7.70;85.80;;;;;;5008424;28;20386;-83
2023/04/25 01:56:08;;;;;;;;;;;7.70;85.40;;;;;;5009586;28;19996;-83
2023/04/25 01:58:34;;;;;;;;;;;7.60;85.20;;;;;;5008290;28;19960;-84
2023/04/25 02:00:59;;;;;;;;;;;7.60;85.90;;;;;;5011346;28;20001;-83
2023/04/25 02:03:25;;;;;;;;;;;7.60;86.10;;;;;;5007795;28;19920;-84
2023/04/25 02:05:50;;;;;;;;;;;7.50;86.50;;;;;;5012157;28;20441;-84
2023/04/25 02:08:16;;;;;;;;;;;7.60;86.60;;;;;;5021302;28;20389;-84
2023/04/25 02:10:42;;;;;;;;;;;7.60;86.10;;;;;;5019925;28;19914;-84
2023/04/25 02:13:07;;;;;;;;;;;7.70;86.50;;;;;;5011472;28;19921;-84
2023/04/25 02:15:32;;;;;;;;;;;7.70;86.00;;;;;;5013544;28;19913;-84
2023/04/25 02:17:59;;;;;;;;;;;7.70;85.70;;;;;;5010721;28;19972;-84
2023/04/25 02:20:25;;;;;;;;;;;7.70;85.10;;;;;;5014013;28;19924;-84
2023/04/25 02:22:51;;;;;;;;;;;7.60;85.70;;;;;;5012193;28;20000;-84
2023/04/25 02:25:17;;;;;;;;;;;7.60;85.30;;;;;;5014183;28;19918;-83
2023/04/25 02:27:43;;;;;;;;;;;7.50;85.70;;;;;;5010152;28;19976;-84
2023/04/25 02:30:08;;;;;;;;;;;7.50;85.90;;;;;;5012570;28;19952;-84
2023/04/25 02:32:34;;;;;;;;;;;7.40;85.90;;;;;;5018690;28;19917;-83
2023/04/25 02:35:03;;;;;;;;;;;7.50;85.80;;;;;;5021610;28;20379;-84
2023/04/25 02:37:32;;;;;;;;;;;7.60;85.30;;;;;;5014378;28;19913;-84
2023/04/25 02:39:58;;;;;;;;;;;7.60;85.60;;;;;;5012750;28;19918;-83
2023/04/25 02:42:23;;;;;;;;;;;7.50;84.90;;;;;;5019185;28;20394;-85
2023/04/25 02:44:48;;;;;;;;;;;7.60;84.40;;;;;;5013969;28;19914;-84
2023/04/25 02:47:14;;;;;;;;;;;7.60;84.30;;;;;;5014268;28;19998;-84
2023/04/25 02:49:40;;;;;;;;;;;7.60;84.10;;;;;;5009532;28;19913;-84
2023/04/25 02:52:05;;;;;;;;;;;7.50;85.10;;;;;;5021942;28;20335;-84
2023/04/25 02:54:31;;;;;;;;;;;7.60;85.40;;;;;;5013939;28;19914;-83
2023/04/25 02:56:56;;;;;;;;;;;7.60;84.70;;;;;;5012883;28;19960;-83
2023/04/25 02:59:22;;;;;;;;;;;7.40;85.50;;;;;;5011705;28;19980;-82
2023/04/25 03:01:47;;;;;;;;;;;7.40;86.40;;;;;;5016796;28;19963;-83
2023/04/25 03:04:13;;;;;;;;;;;7.40;86.10;;;;;;5009450;28;20209;-83
2023/04/25 03:06:38;;;;;;;;;;;7.50;85.90;;;;;;5012842;28;19914;-83
2023/04/25 03:09:04;;;;;;;;;;;7.40;86.10;;;;;;5009360;28;20004;-83
2023/04/25 03:11:29;;;;;;;;;;;7.40;85.90;;;;;;5006721;28;20337;-84
2023/04/25 03:13:55;;;;;;;;;;;7.40;85.70;;;;;;5011944;28;19913;-84
2023/04/25 03:16:21;;;;;;;;;;;7.30;85.60;;;;;;5015483;28;19913;-83
2023/04/25 03:18:46;;;;;;;;;;;7.40;85.60;;;;;;5011208;28;19935;-83
2023/04/25 03:21:11;;;;;;;;;;;7.30;85.30;;;;;;5012866;28;20011;-83
2023/04/25 03:23:37;;;;;;;;;;;7.30;85.90;;;;;;5009669;28;19944;-83
2023/04/25 03:26:02;;;;;;;;;;;7.40;85.40;;;;;;5012994;28;19917;-83
2023/04/25 03:28:28;;;;;;;;;;;7.30;85.70;;;;;;5014095;28;20374;-82
2023/04/25 03:30:54;;;;;;;;;;;7.30;85.90;;;;;;5011902;28;19914;-83
2023/04/25 03:33:19;;;;;;;;;;;7.30;85.50;;;;;;5014504;28;19913;-84
2023/04/25 03:35:45;;;;;;;;;;;7.30;85.30;;;;;;5016790;28;19992;-84
2023/04/25 03:38:10;;;;;;;;;;;7.40;85.20;;;;;;5017775;28;19964;-84
2023/04/25 03:40:36;;;;;;;;;;;7.40;85.70;;;;;;5027101;28;19967;-83
2023/04/25 03:43:01;;;;;;;;;;;7.40;84.60;;;;;;5015367;28;20405;-84
2023/04/25 03:45:27;;;;;;;;;;;7.40;84.60;;;;;;5013759;28;20044;-84
2023/04/25 03:47:52;;;;;;;;;;;7.30;84.80;;;;;;5014026;28;19917;-83
2023/04/25 03:50:18;;;;;;;;;;;7.40;85.50;;;;;;5015810;28;20337;-84
2023/04/25 03:52:43;;;;;;;;;;;7.50;84.90;;;;;;5009472;28;19941;-84
2023/04/25 03:55:09;;;;;;;;;;;7.50;85.30;;;;;;5021899;28;20027;-84
2023/04/25 03:57:35;;;;;;;;;;;7.40;85.50;;;;;;5012525;28;19913;-84
2023/04/25 04:00:00;;;;;;;;;;;7.40;85.80;;;;;;5020433;28;19921;-83
2023/04/25 04:02:26;;;;;;;;;;;7.40;85.30;;;;;;5022411;28;19917;-84
2023/04/25 04:04:51;;;;;;;;;;;7.50;85.50;;;;;;5014344;28;19914;-84
2023/04/25 04:07:17;;;;;;;;;;;7.50;85.00;;;;;;5013109;28;19919;-85
2023/04/25 04:09:42;;;;;;;;;;;7.60;83.70;;;;;;5011925;28;19936;-83
2023/04/25 04:12:08;;;;;;;;;;;7.00;83.70;;;;;;5018232;28;19918;-83
2023/04/25 04:14:33;;;;;;;;;;;6.50;84.10;;;;;;5019697;28;19914;-85
2023/04/25 04:16:59;;;;;;;;;;;6.10;85.90;;;;;;5017360;28;19913;-86
2023/04/25 04:19:25;;;;;;;;;;;6.10;86.80;;;;;;5021649;28;19913;-85
2023/04/25 04:21:50;;;;;;;;;;;6.00;87.50;;;;;;5021359;28;20326;-86
2023/04/25 04:24:16;;;;;;;;;;;6.10;88.30;;;;;;5017186;28;19917;-85
2023/04/25 04:26:44;;;;;;;;;;;6.10;88.30;;;;;;5019341;28;20370;-84
2023/04/25 04:29:10;;;;;;;;;;;6.10;88.30;;;;;;5019865;28;19918;-85
2023/04/25 04:31:36;;;;;;;;;;;6.10;88.00;;;;;;5024232;22;19926;-84
2023/04/25 04:34:03;;;;;;;;;;;6.10;87.90;;;;;;5008303;28;20395;-85
2023/04/25 04:36:29;;;;;;;;;;;6.10;88.80;;;;;;5000968;28;19921;-84
2023/04/25 04:38:56;;;;;;;;;;;6.10;88.50;;;;;;5003664;28;20032;-85
2023/04/25 04:41:21;;;;;;;;;;;6.10;88.30;;;;;;4998883;28;19957;-85
2023/04/25 04:43:47;;;;;;;;;;;6.00;88.80;;;;;;5006617;28;19953;-85
2023/04/25 04:46:12;;;;;;;;;;;6.10;89.00;;;;;;5005082;28;20012;-82
2023/04/25 04:48:39;;;;;;;;;;;6.10;88.70;;;;;;5004976;28;19941;-83
2023/04/25 04:51:05;;;;;;;;;;;6.10;88.70;;;;;;5009566;28;19976;-83
2023/04/25 04:53:31;;;;;;;;;;;6.10;89.00;;;;;;5008693;28;20354;-84
2023/04/25 04:55:56;;;;;;;;;;;6.20;88.70;;;;;;5008887;28;19959;-83
2023/04/25 04:58:22;;;;;;;;;;;6.20;88.50;;;;;;5009539;28;19932;-84
2023/04/25 05:00:48;;;;;;;;;;;6.20;88.90;;;;;;5005687;28;20002;-84
2023/04/25 05:03:13;;;;;;;;;;;6.30;89.10;;;;;;4999243;28;19921;-84
2023/04/25 05:05:42;;;;;;;;;;;6.30;89.00;;;;;;5009025;28;19913;-84
2023/04/25 05:08:07;;;;;;;;;;;6.30;88.60;;;;;;5009180;28;19976;-84
2023/04/25 05:10:33;;;;;;;;;;;6.30;88.20;;;;;;5000628;28;20399;-83
2023/04/25 05:12:58;;;;;;;;;;;6.40;88.00;;;;;;5010093;28;20509;-83
2023/04/25 05:15:24;;;;;;;;;;;6.40;88.00;;;;;;5010562;28;19925;-84
2023/04/25 05:17:49;;;;;;;;;;;6.50;87.70;;;;;;5008022;28;19925;-83
2023/04/25 05:20:15;;;;;;;;;;;6.50;87.70;;;;;;5009474;28;19922;-83
2023/04/25 05:22:41;;;;;;;;;;;6.60;87.60;;;;;;5002506;28;19984;-83
2023/04/25 05:25:07;;;;;;;;;;;6.60;87.30;;;;;;5006505;28;19984;-83
2023/04/25 05:27:33;;;;;;;;;;;6.70;86.90;;;;;;5010365;28;19917;-84
2023/04/25 05:29:58;;;;;;;;;;;6.70;87.00;;;;;;5005742;28;19921;-85
2023/04/25 05:32:24;;;;;;;;;;;6.80;86.90;;;;;;5005661;28;19921;-83
2023/04/25 05:34:50;;;;;;;;;;;6.80;86.70;;;;;;4998381;28;20380;-84
2023/04/25 05:37:16;;;;;;;;;;;6.90;86.60;;;;;;5007573;28;19968;-86
2023/04/25 05:39:41;;;;;;;;;;;7.00;86.60;;;;;;5007918;28;19920;-85
2023/04/25 05:42:06;;;;;;;;;;;7.00;86.30;;;;;;4990729;28;20406;-85
2023/04/25 05:44:32;;;;;;;;;;;7.10;86.00;;;;;;4990953;28;20331;-85
2023/04/25 05:46:57;;;;;;;;;;;7.10;86.20;;;;;;4992076;28;19909;-85
2023/04/25 05:49:23;;;;;;;;;;;7.20;86.30;;;;;;5008057;28;19917;-85
2023/04/25 05:51:48;;;;;;;;;;;7.20;85.60;;;;;;5007589;28;20317;-85
2023/04/25 05:54:17;;;;;;;;;;;7.20;86.20;;;;;;5003013;28;20835;-88
2023/04/25 05:56:42;;;;;;;;;;;7.20;86.10;;;;;;5005675;28;20076;-86
2023/04/25 05:59:08;;;;;;;;;;;7.30;86.20;;;;;;5004503;28;20501;-86
2023/04/25 06:01:35;;;;;;;;;;;7.30;85.50;;;;;;5003010;28;19917;-86
2023/04/25 06:04:01;;;;;;;;;;;7.20;85.50;;;;;;4999765;28;19917;-86
2023/04/25 06:06:27;;;;;;;;;;;7.30;85.80;;;;;;4999565;28;19914;-86
2023/04/25 06:08:52;;;;;;;;;;;7.40;85.80;;;;;;5007752;28;19972;-85
2023/04/25 06:11:18;;;;;;;;;;;7.50;86.00;;;;;;5014197;28;19973;-86
2023/04/25 06:13:43;;;;;;;;;;;7.60;85.10;;;;;;5013260;28;19913;-85
2023/04/25 06:16:09;;;;;;;;;;;7.60;85.00;;;;;;5007777;28;20371;-85
2023/04/25 06:18:34;;;;;;;;;;;7.70;84.90;;;;;;5014636;28;20280;-86
2023/04/25 06:21:00;;;;;;;;;;;8.00;84.20;;;;;;5018654;28;19970;-86
2023/04/25 06:23:28;;;;;;;;;;;8.00;84.50;;;;;;5014386;28;19914;-86
2023/04/25 06:25:53;;;;;;;;;;;8.00;84.70;;;;;;5011322;28;20008;-86
2023/04/25 06:28:19;;;;;;;;;;;7.90;84.30;;;;;;5008949;28;20008;-86
2023/04/25 06:30:44;;;;;;;;;;;7.90;84.50;;;;;;5016008;28;19917;-86
2023/04/25 06:33:10;;;;;;;;;;;7.90;84.30;;;;;;5015362;28;19917;-85
2023/04/25 06:35:36;;;;;;;;;;;7.90;85.00;;;;;;5015566;28;19945;-86
2023/04/25 06:38:01;;;;;;;;;;;7.90;84.80;;;;;;5013768;28;19921;-86
2023/04/25 06:40:26;;;;;;;;;;;7.80;84.00;;;;;;5007604;28;19996;-83
2023/04/25 06:42:52;;;;;;;;;;;7.80;84.60;;;;;;5012378;28;19913;-83
2023/04/25 06:48:13;;;;;;;;;;;;;;;;;;;;;
2023/04/25 06:50:45;;;;;;;;;;;7.90;82.70;;;;;;5008149;28;20394;-87
2023/04/25 06:53:19;;;;;;;;;;;8.00;81.30;;;;;;5011562;28;19936;-87
2023/04/25 06:55:48;;;;;;;;;;;7.90;81.90;;;;;;5009605;28;19932;-86
2023/04/25 06:58:13;;;;;;;;;;;7.90;81.60;;;;;;5011978;28;19924;-85
2023/04/25 07:00:39;;;;;;;;;;;8.00;82.10;;;;;;5013527;28;20007;-86
2023/04/25 07:03:04;;;;;;;;;;;8.00;80.80;;;;;;5016643;28;19921;-87
2023/04/25 07:05:32;;;;;;;;;;;8.10;80.50;;;;;;5016281;28;19921;-90
2023/04/25 07:07:58;;;;;;;;;;;8.00;79.70;;;;;;5009827;28;19975;-86
2023/04/25 07:10:23;;;;;;;;;;;8.10;78.40;;;;;;5014233;28;20568;-87
2023/04/25 07:12:49;;;;;;;;;;;8.20;78.30;;;;;;5018068;28;19910;-86
2023/04/25 07:15:14;;;;;;;;;;;8.40;76.90;;;;;;5005284;28;20055;-86
2023/04/25 07:17:42;;;;;;;;;;;8.20;77.40;;;;;;5001470;28;19914;-86
2023/04/25 07:20:11;;;;;;;;;;;8.10;78.50;;;;;;5010237;28;19967;-87
2023/04/25 07:22:37;;;;;;;;;;;8.20;77.70;;;;;;5013238;28;20008;-87
2023/04/25 07:25:04;;;;;;;;;;;8.30;78.20;;;;;;5011802;28;19953;-86
2023/04/25 07:27:29;;;;;;;;;;;8.30;79.00;;;;;;5005155;28;20312;-86
2023/04/25 07:29:55;;;;;;;;;;;8.40;78.70;;;;;;5011359;28;19957;-86
2023/04/25 07:32:20;;;;;;;;;;;8.40;77.70;;;;;;5003841;28;20015;-86
2023/04/25 07:34:46;;;;;;;;;;;8.40;77.70;;;;;;5008265;28;19936;-85
2023/04/25 07:37:18;;;;;;;;;;;8.40;77.50;;;;;;5012747;28;19933;-85
2023/04/25 07:39:45;;;;;;;;;;;8.40;76.60;;;;;;5012367;28;20012;-87
2023/04/25 07:42:14;;;;;;;;;;;8.50;77.20;;;;;;5006601;28;19924;-89
2023/04/25 07:44:40;;;;;;;;;;;8.70;75.90;;;;;;5003150;28;19936;-86
2023/04/25 07:47:09;;;;;;;;;;;8.90;76.20;;;;;;4997712;28;19921;-87
2023/04/25 07:49:35;;;;;;;;;;;9.00;75.50;;;;;;5012797;28;19972;-87
2023/04/25 07:52:01;;;;;;;;;;;9.00;74.80;;;;;;5005654;28;19917;-87
2023/04/25 07:54:26;;;;;;;;;;;9.10;73.60;;;;;;5001529;28;20433;-87
2023/04/25 07:56:51;;;;;;;;;;;9.10;74.90;;;;;;5007787;28;19925;-87
2023/04/25 07:59:17;;;;;;;;;;;9.10;75.10;;;;;;5011642;28;20438;-87
2023/04/25 08:01:42;;;;;;;;;;;9.00;73.20;;;;;;5007008;28;19913;-87
2023/04/25 08:04:08;;;;;;;;;;;8.70;74.70;;;;;;5002597;28;20409;-88
2023/04/25 08:06:33;;;;;;;;;;;8.60;74.00;;;;;;5005779;28;20421;-85
2023/04/25 08:08:59;;;;;;;;;;;8.70;73.90;;;;;;5004145;28;20025;-87
2023/04/25 08:11:25;;;;;;;;;;;8.80;73.80;;;;;;5006557;28;19913;-88
2023/04/25 08:13:50;;;;;;;;;;;9.00;72.70;;;;;;5009395;28;19913;-88
2023/04/25 08:16:16;;;;;;;;;;;9.00;70.10;;;;;;5001774;28;19921;-86
2023/04/25 08:18:41;;;;;;;;;;;8.80;71.10;;;;;;4998827;28;19931;-87
2023/04/25 08:21:08;;;;;;;;;;;8.90;69.90;;;;;;4999726;28;19918;-87
2023/04/25 08:23:34;;;;;;;;;;;9.00;67.90;;;;;;5003671;28;19918;-87
2023/04/25 08:25:59;;;;;;;;;;;9.00;69.80;;;;;;5002941;28;19920;-87
2023/04/25 08:28:25;;;;;;;;;;;9.00;69.50;;;;;;5002923;28;19925;-87
2023/04/25 08:30:51;;;;;;;;;;;9.20;68.70;;;;;;5002037;28;20392;-87
2023/04/25 08:33:16;;;;;;;;;;;9.30;68.60;;;;;;4999312;28;19925;-88
2023/04/25 08:35:42;;;;;;;;;;;9.40;68.60;;;;;;5004531;28;19964;-88
2023/04/25 08:38:07;;;;;;;;;;;9.50;67.50;;;;;;5003206;28;20008;-88
2023/04/25 08:40:37;;;;;;;;;;;9.60;66.10;;;;;;5003738;28;19914;-87
2023/04/25 08:43:03;;;;;;;;;;;9.80;62.40;;;;;;5000674;28;19997;-86
2023/04/25 08:45:30;;;;;;;;;;;9.60;65.40;;;;;;5004386;28;20060;-86
2023/04/25 08:47:56;;;;;;;;;;;9.80;63.80;;;;;;5002796;28;19917;-86
2023/04/25 08:50:22;;;;;;;;;;;9.80;62.70;;;;;;5003026;28;19914;-86
2023/04/25 08:52:50;;;;;;;;;;;9.70;64.00;;;;;;5004382;28;20276;-86
2023/04/25 08:55:15;;;;;;;;;;;9.80;64.30;;;;;;5000140;28;20064;-87
2023/04/25 08:57:44;;;;;;;;;;;9.60;63.50;;;;;;5001501;28;20005;-86
2023/04/25 09:00:12;;;;;;;;;;;9.60;65.90;;;;;;4999627;28;19925;-88
2023/04/25 09:02:38;;;;;;;;;;;9.60;63.00;;;;;;5005095;28;19914;-87
2023/04/25 09:05:04;;;;;;;;;;;9.50;63.20;;;;;;5007114;28;19918;-87
2023/04/25 09:07:30;;;;;;;;;;;9.70;61.80;;;;;;5004111;28;19920;-87
2023/04/25 09:09:55;;;;;;;;;;;9.70;61.30;;;;;;5004261;28;19924;-87
2023/04/25 09:12:22;;;;;;;;;;;9.90;62.50;;;;;;5002185;28;20416;-87
2023/04/25 09:15:01;;;;;;;;;;;10.20;60.10;;;;;;5004231;28;20016;-87
2023/04/25 09:17:28;;;;;;;;;;;10.20;59.30;;;;;;5000727;28;19914;-87
2023/04/25 09:19:54;;;;;;;;;;;10.10;60.80;;;;;;4999822;28;19920;-86
2023/04/25 09:22:22;;;;;;;;;;;10.00;61.40;;;;;;4999904;28;19914;-87
2023/04/25 09:24:49;;;;;;;;;;;10.00;61.90;;;;;;5000739;28;19972;-87
2023/04/25 09:27:19;;;;;;;;;;;9.90;60.00;;;;;;5002560;28;20303;-86
2023/04/25 09:29:44;;;;;;;;;;;10.00;58.10;;;;;;5000437;28;19917;-87
2023/04/25 09:32:20;;;;;;;;;;;10.10;60.80;;;;;;5000612;28;19995;-87
2023/04/25 09:34:50;;;;;;;;;;;10.20;60.60;;;;;;5000279;28;19952;-87
2023/04/25 09:37:20;;;;;;;;;;;10.30;61.20;;;;;;5001793;28;20273;-87
2023/04/25 09:39:49;;;;;;;;;;;10.40;58.90;;;;;;5004776;28;19956;-87
2023/04/25 09:42:16;;;;;;;;;;;10.30;59.80;;;;;;5000834;28;19914;-88
2023/04/25 09:44:45;;;;;;;;;;;10.10;58.40;;;;;;5000627;28;20404;-87
2023/04/25 09:47:12;;;;;;;;;;;10.20;59.10;;;;;;5003436;28;20011;-85
2023/04/25 09:49:53;;;;;;;;;;;10.20;58.90;;;;;;4999907;28;19917;-88
2023/04/25 09:52:23;;;;;;;;;;;10.30;60.60;;;;;;4998000;28;19996;-87
2023/04/25 09:54:49;;;;;;;;;;;10.20;61.90;;;;;;5000340;28;19932;-87
2023/04/25 09:57:16;;;;;;;;;;;10.30;58.90;;;;;;4999191;28;19917;-86
2023/04/25 09:59:45;;;;;;;;;;;10.40;58.20;;;;;;5001141;28;20418;-87
2023/04/25 10:02:12;;;;;;;;;;;10.40;58.80;;;;;;4999019;28;19914;-87
2023/04/25 10:04:38;;;;;;;;;;;10.10;56.30;;;;;;4996659;28;19914;-87
2023/04/25 10:07:05;;;;;;;;;;;10.00;55.40;;;;;;5000272;28;19944;-85
2023/04/25 10:09:33;;;;;;;;;;;9.90;54.80;;;;;;5002555;28;19924;-84
2023/04/25 10:12:00;;;;;;;;;;;10.00;54.30;;;;;;5001345;28;19913;-87
2023/04/25 10:14:26;;;;;;;;;;;10.00;55.60;;;;;;5001879;28;20287;-87
2023/04/25 10:17:01;;;;;;;;;;;10.10;58.90;;;;;;5001705;28;19914;-87
2023/04/25 10:19:29;;;;;;;;;;;10.20;54.40;;;;;;5004068;28;20228;-88
2023/04/25 10:22:03;;;;;;;;;;;10.60;55.70;;;;;;5004414;28;19924;-86
2023/04/25 10:24:28;;;;;;;;;;;10.70;53.20;;;;;;5010329;28;19975;-87
2023/04/25 10:26:55;;;;;;;;;;;10.60;50.60;;;;;;5011165;28;20475;-87
2023/04/25 10:29:21;;;;;;;;;;;10.40;50.60;;;;;;4999172;28;20014;-87
2023/04/25 10:31:47;;;;;;;;;;;10.30;52.30;;;;;;4979373;22;19925;-85
2023/04/25 10:34:12;;;;;;;;;;;10.40;51.30;;;;;;5025755;28;19932;-85
2023/04/25 10:36:38;;;;;;;;;;;10.60;52.60;;;;;;5031159;28;19925;-86
2023/04/25 10:39:07;;;;;;;;;;;10.90;52.40;;;;;;5049302;28;19913;-85
2023/04/25 10:41:45;;;;;;;;;;;11.10;51.40;;;;;;5034264;28;19916;-86
2023/04/25 10:44:10;;;;;;;;;;;11.00;51.10;;;;;;5030672;28;19909;-86
2023/04/25 10:46:36;;;;;;;;;;;10.80;52.30;;;;;;5018838;28;19928;-86
2023/04/25 10:49:02;;;;;;;;;;;10.80;51.10;;;;;;5009228;28;19945;-85
2023/04/25 10:51:27;;;;;;;;;;;10.50;53.20;;;;;;5010946;28;19945;-85
2023/04/25 10:53:55;;;;;;;;;;;10.50;51.60;;;;;;5010913;28;19964;-86
2023/04/25 10:56:37;;;;;;;;;;;10.40;52.20;;;;;;5011575;28;19917;-84
2023/04/25 10:59:06;;;;;;;;;;;10.20;52.00;;;;;;5010615;28;19917;-85
2023/04/25 11:01:39;;;;;;;;;;;10.10;54.00;;;;;;5013415;28;20471;-85
2023/04/25 11:04:05;;;;;;;;;;;10.00;53.60;;;;;;5004508;28;20388;-84
2023/04/25 11:06:49;;;;;;;;;;;9.90;55.00;;;;;;5012818;28;19956;-84
2023/04/25 11:09:14;;;;;;;;;;;9.60;57.30;;;;;;5008734;28;19917;-84
2023/04/25 11:11:40;;;;;;;;;;;9.50;58.10;;;;;;5021743;28;19996;-84
2023/04/25 11:14:06;;;;;;;;;;;9.30;58.50;;;;;;5034763;28;19916;-85
2023/04/25 11:16:32;;;;;;;;;;;9.10;59.50;;;;;;5029876;28;20434;-83
2023/04/25 11:18:58;;;;;;;;;;;9.10;60.30;;;;;;5022019;28;19909;-84
2023/04/25 11:21:25;;;;;;;;;;;9.10;60.40;;;;;;5015845;28;19909;-84
2023/04/25 11:23:51;;;;;;;;;;;8.90;61.80;;;;;;5015032;28;20332;-84
2023/04/25 11:26:18;;;;;;;;;;;8.90;62.70;;;;;;5013359;28;19921;-84
2023/04/25 11:28:48;;;;;;;;;;;9.00;63.30;;;;;;5007405;28;19924;-85
2023/04/25 11:31:14;;;;;;;;;;;8.90;63.50;;;;;;5011715;28;19924;-83
2023/04/25 11:33:40;;;;;;;;;;;9.10;64.30;;;;;;5014393;28;19909;-84
2023/04/25 11:36:06;;;;;;;;;;;9.10;64.30;;;;;;5013344;28;20348;-84
2023/04/25 11:38:32;;;;;;;;;;;9.30;63.60;;;;;;5005713;28;19914;-84
2023/04/25 11:40:58;;;;;;;;;;;9.60;64.40;;;;;;4998081;28;19909;-84
2023/04/25 11:43:23;;;;;;;;;;;9.80;59.70;;;;;;4993676;28;20387;-84
2023/04/25 11:45:50;;;;;;;;;;;10.00;60.30;;;;;;4995571;28;19917;-84
2023/04/25 11:48:16;;;;;;;;;;;10.20;60.40;;;;;;5009656;28;19932;-85
2023/04/25 11:50:41;;;;;;;;;;;10.40;57.90;;;;;;5016064;28;19914;-84
2023/04/25 11:53:08;;;;;;;;;;;10.50;57.80;;;;;;5016638;28;19905;-84
2023/04/25 11:55:34;;;;;;;;;;;10.30;57.60;;;;;;5031970;28;19906;-88
2023/04/25 11:58:00;;;;;;;;;;;10.20;55.60;;;;;;5020829;28;19914;-84
2023/04/25 12:00:26;;;;;;;;;;;10.00;56.20;;;;;;5018845;28;19920;-84
2023/04/25 12:02:57;;;;;;;;;;;9.90;53.50;;;;;;5016063;28;20407;-86
2023/04/25 12:05:24;;;;;;;;;;;9.90;49.20;;;;;;5015242;28;19913;-86
2023/04/25 12:07:50;;;;;;;;;;;9.90;49.10;;;;;;5004090;28;19964;-85
2023/04/25 12:10:16;;;;;;;;;;;9.90;50.50;;;;;;5000881;28;19991;-86
2023/04/25 12:12:42;;;;;;;;;;;10.00;49.70;;;;;;5007868;28;20563;-85
2023/04/25 12:15:28;;;;;;;;;;;10.00;50.80;;;;;;4992406;28;19977;-90
2023/04/25 12:17:54;;;;;;;;;;;10.00;51.20;;;;;;5016974;28;19924;-88
2023/04/25 12:20:23;;;;;;;;;;;10.10;48.00;;;;;;5010674;28;19956;-86
2023/04/25 12:22:49;;;;;;;;;;;10.00;48.30;;;;;;5012347;28;19913;-89
2023/04/25 12:25:33;;;;;;;;;;;10.00;52.10;;;;;;5008836;28;19976;-86
2023/04/25 12:28:15;;;;;;;;;;;10.10;50.70;;;;;;4997666;28;20041;-86
2023/04/25 12:30:59;;;;;;;;;;;10.30;49.20;;;;;;4992491;28;19956;-88
2023/04/25 12:33:28;;;;;;;;;;;10.40;52.00;;;;;;5003539;28;19933;-90
2023/04/25 12:35:57;;;;;;;;;;;10.60;49.00;;;;;;5006686;28;19968;-88
2023/04/25 12:38:26;;;;;;;;;;;10.90;50.10;;;;;;5005768;28;19940;-88
2023/04/25 12:40:52;;;;;;;;;;;11.00;48.30;;;;;;5012664;28;20305;-89
2023/04/25 12:43:18;;;;;;;;;;;11.20;48.60;;;;;;5013175;28;19909;-88
2023/04/25 12:45:44;;;;;;;;;;;11.10;48.40;;;;;;5013548;28;19917;-89
2023/04/25 12:48:10;;;;;;;;;;;11.10;50.10;;;;;;5031264;28;19978;-89
2023/04/25 12:50:35;;;;;;;;;;;11.20;49.70;;;;;;5015221;28;19957;-89
2023/04/25 12:53:04;;;;;;;;;;;11.20;50.80;;;;;;5016208;28;19914;-89
2023/04/25 12:55:30;;;;;;;;;;;11.50;49.70;;;;;;5005236;28;19913;-89
2023/04/25 12:57:55;;;;;;;;;;;11.60;51.40;;;;;;5002006;28;19917;-88
2023/04/25 13:00:21;;;;;;;;;;;11.50;49.50;;;;;;5014603;28;19937;-89
2023/04/25 13:02:47;;;;;;;;;;;11.40;50.80;;;;;;5017740;28;20071;-89
2023/04/25 13:05:13;;;;;;;;;;;11.30;49.70;;;;;;5017507;28;19995;-87
2023/04/25 13:07:38;;;;;;;;;;;11.20;49.90;;;;;;5008331;28;19956;-89
2023/04/25 13:10:05;;;;;;;;;;;11.10;49.90;;;;;;5013834;28;19921;-91
2023/04/25 13:12:31;;;;;;;;;;;11.00;50.10;;;;;;5013240;28;19913;-89
2023/04/25 13:14:57;;;;;;;;;;;11.10;50.80;;;;;;5011571;28;19910;-89
2023/04/25 13:17:22;;;;;;;;;;;11.10;50.00;;;;;;5013789;28;19914;-89
2023/04/25 13:19:50;;;;;;;;;;;11.00;47.80;;;;;;5012961;28;20001;-89
2023/04/25 13:22:20;;;;;;;;;;;10.70;49.60;;;;;;5014485;28;19950;-89
2023/04/25 13:24:45;;;;;;;;;;;10.50;49.20;;;;;;5013140;28;19924;-89
2023/04/25 13:27:12;;;;;;;;;;;10.30;50.20;;;;;;5021244;28;19913;-87
2023/04/25 13:29:40;;;;;;;;;;;10.10;50.50;;;;;;5014547;28;19928;-87
2023/04/25 13:32:08;;;;;;;;;;;10.20;51.90;;;;;;5001806;28;20012;-87
2023/04/25 13:34:34;;;;;;;;;;;10.30;51.50;;;;;;5016054;28;19913;-88
2023/04/25 13:37:00;;;;;;;;;;;10.50;50.00;;;;;;5012575;28;19921;-86
2023/04/25 13:39:25;;;;;;;;;;;10.40;51.30;;;;;;5010625;28;19925;-85
2023/04/25 13:41:51;;;;;;;;;;;10.30;52.10;;;;;;5019921;28;19913;-85
2023/04/25 13:44:16;;;;;;;;;;;10.50;52.30;;;;;;5012458;28;19914;-88
2023/04/25 13:46:43;;;;;;;;;;;10.60;51.80;;;;;;5008040;28;20001;-89
2023/04/25 13:49:09;;;;;;;;;;;10.50;51.40;;;;;;5006086;28;19980;-87
2023/04/25 13:51:34;;;;;;;;;;;10.50;52.60;;;;;;4999142;28;19917;-89
2023/04/25 13:54:05;;;;;;;;;;;10.30;52.60;;;;;;5008084;28;19967;-90
2023/04/25 13:56:30;;;;;;;;;;;10.30;53.50;;;;;;5007153;28;19914;-87
2023/04/25 13:58:56;;;;;;;;;;;10.40;53.70;;;;;;5006203;28;19920;-90
2023/04/25 14:01:22;;;;;;;;;;;10.50;56.20;;;;;;5006255;28;19914;-88
2023/04/25 14:03:47;;;;;;;;;;;10.80;55.50;;;;;;5013954;28;19921;-87
2023/04/25 14:06:13;;;;;;;;;;;10.90;54.80;;;;;;5009542;28;19964;-88
2023/04/25 14:08:39;;;;;;;;;;;10.80;55.70;;;;;;5006652;28;19921;-88
2023/04/25 14:11:04;;;;;;;;;;;10.70;57.20;;;;;;5009733;28;19913;-88
2023/04/25 14:13:30;;;;;;;;;;;10.80;56.50;;;;;;5011957;28;19920;-88
2023/04/25 14:15:55;;;;;;;;;;;10.90;55.30;;;;;;5006842;28;19913;-88
2023/04/25 14:18:21;;;;;;;;;;;11.20;53.90;;;;;;5008714;28;19913;-89
2023/04/25 14:20:46;;;;;;;;;;;11.40;52.60;;;;;;5009807;28;20012;-89
2023/04/25 14:23:12;;;;;;;;;;;11.60;51.80;;;;;;5001214;28;20000;-88
2023/04/25 14:25:37;;;;;;;;;;;11.60;51.60;;;;;;4999804;28;19909;-88